Time,TemperatureF,DewpointF,PressureIn,WindDirection,WindDirectionDegrees,WindSpeedMPH,WindSpeedGustMPH,Humidity,HourlyPrecipIn,Conditions,Clouds,dailyrainin,SolarRadiationWatts/m^2,SoftwareType,DateUTC
2013-04-03 00:00:00,26.0,13.0,-100.00,West,270,0.0,-999.0,57,-99.99,,,-99.99,0.000000,,2013-04-03 04:00:00,
2013-04-03 00:33:00,26.0,13.0,-100.00,West,270,0.0,-999.0,57,-99.99,,,-99.99,0.000000,,2013-04-03 04:33:00,
2013-04-03 00:43:00,26.0,13.0,-100.00,West,270,0.0,-999.0,57,-99.99,,,-99.99,0.000000,,2013-04-03 04:43:00,
2013-04-03 00:53:00,26.0,13.0,-100.00,West,270,0.0,-999.0,57,-99.99,,,-99.99,0.000000,,2013-04-03 04:53:00,
2013-04-03 01:00:00,24.0,13.0,-100.00,SW,225,1.0,-999.0,62,-99.99,,,-99.99,0.000000,,2013-04-03 05:00:00,
2013-04-03 01:42:00,24.0,13.0,-100.00,SW,225,1.0,-999.0,62,-99.99,,,-99.99,0.000000,,2013-04-03 05:42:00,
2013-04-03 01:53:00,24.0,13.0,-100.00,SW,225,1.0,-999.0,62,-99.99,,,-99.99,0.000000,,2013-04-03 05:53:00,
2013-04-03 02:00:00,21.0,13.0,-100.00,SW,225,2.0,-999.0,71,-99.99,,,-99.99,0.000000,,2013-04-03 06:00:00,
2013-04-03 02:42:00,21.0,13.0,-100.00,SW,225,2.0,-999.0,71,-99.99,,,-99.99,0.000000,,2013-04-03 06:42:00,
2013-04-03 02:52:00,21.0,13.0,-100.00,SW,225,2.0,-999.0,71,-99.99,,,-99.99,0.000000,,2013-04-03 06:52:00,
2013-04-03 03:00:00,20.0,14.0,-100.00,SW,225,1.0,-999.0,73,-99.99,,,-99.99,0.000000,,2013-04-03 07:00:00,
2013-04-03 03:43:00,20.0,14.0,-100.00,SW,225,1.0,-999.0,73,-99.99,,,-99.99,0.000000,,2013-04-03 07:43:00,
2013-04-03 03:53:00,20.0,14.0,-100.00,SW,225,1.0,-999.0,73,-99.99,,,-99.99,0.000000,,2013-04-03 07:53:00,
2013-04-03 04:00:00,20.0,14.0,-100.00,SW,225,2.0,-999.0,77,-99.99,,,-99.99,0.000000,,2013-04-03 08:00:00,
2013-04-03 04:43:00,20.0,14.0,-100.00,SW,225,2.0,-999.0,77,-99.99,,,-99.99,0.000000,,2013-04-03 08:43:00,
2013-04-03 04:52:00,20.0,14.0,-100.00,SW,225,2.0,-999.0,77,-99.99,,,-99.99,0.000000,,2013-04-03 08:52:00,
2013-04-03 05:00:00,18.0,14.0,-100.00,SW,225,0.0,-999.0,83,-99.99,,,-99.99,0.000000,,2013-04-03 09:00:00,
2013-04-03 05:43:00,18.0,14.0,-100.00,SW,225,0.0,-999.0,83,-99.99,,,-99.99,0.000000,,2013-04-03 09:43:00,
2013-04-03 05:53:00,18.0,14.0,-100.00,SW,225,0.0,-999.0,83,-99.99,,,-99.99,0.000000,,2013-04-03 09:53:00,
2013-04-03 06:00:00,19.0,15.0,-100.00,SSW,202,0.0,-999.0,85,-99.99,,,-99.99,0.000000,,2013-04-03 10:00:00,
2013-04-03 06:43:00,19.0,15.0,-100.00,SSW,202,0.0,-999.0,85,-99.99,,,-99.99,0.000000,,2013-04-03 10:43:00,
2013-04-03 06:53:00,19.0,15.0,-100.00,SSW,202,0.0,-999.0,85,-99.99,,,-99.99,0.000000,,2013-04-03 10:53:00,
2013-04-03 07:00:00,18.0,14.0,-100.00,SW,225,1.0,-999.0,85,-99.99,,,-99.99,0.000000,,2013-04-03 11:00:00,
2013-04-03 07:42:00,18.0,14.0,-100.00,SW,225,1.0,-999.0,85,-99.99,,,-99.99,0.000000,,2013-04-03 11:42:00,
2013-04-03 07:53:00,18.0,14.0,-100.00,SW,225,1.0,-999.0,85,-99.99,,,-99.99,0.000000,,2013-04-03 11:53:00,
2013-04-03 08:00:00,18.0,15.0,-100.00,SW,225,1.0,-999.0,85,-99.99,,,-99.99,17.400000,,2013-04-03 12:00:00,
2013-04-03 08:42:00,18.0,15.0,-100.00,SW,225,1.0,-999.0,85,-99.99,,,-99.99,17.400000,,2013-04-03 12:42:00,
2013-04-03 08:52:00,18.0,15.0,-100.00,SW,225,1.0,-999.0,85,-99.99,,,-99.99,17.400000,,2013-04-03 12:52:00,
2013-04-03 09:00:00,25.0,19.0,-100.00,West,270,3.0,-999.0,77,-99.99,,,-99.99,157.759995,,2013-04-03 13:00:00,
2013-04-03 09:42:00,25.0,19.0,-100.00,West,270,3.0,-999.0,77,-99.99,,,-99.99,157.759995,,2013-04-03 13:42:00,
2013-04-03 09:52:00,25.0,19.0,-100.00,West,270,3.0,-999.0,77,-99.99,,,-99.99,157.759995,,2013-04-03 13:52:00,
2013-04-03 10:00:00,34.0,17.0,-100.00,SSE,157,8.0,-999.0,50,-99.99,,,-99.99,338.720001,,2013-04-03 14:00:00,
2013-04-03 10:43:00,34.0,17.0,-100.00,SSE,157,8.0,-999.0,50,-99.99,,,-99.99,338.720001,,2013-04-03 14:43:00,
2013-04-03 10:52:00,34.0,17.0,-100.00,SSE,157,8.0,-999.0,50,-99.99,,,-99.99,338.720001,,2013-04-03 14:52:00,
2013-04-03 11:00:00,36.0,12.0,-100.00,South,180,10.0,-999.0,36,-99.99,,,-99.99,505.760010,,2013-04-03 15:00:00,
2013-04-03 11:43:00,36.0,12.0,-100.00,South,180,10.0,-999.0,36,-99.99,,,-99.99,505.760010,,2013-04-03 15:43:00,
2013-04-03 11:53:00,36.0,12.0,-100.00,South,180,10.0,-999.0,36,-99.99,,,-99.99,505.760010,,2013-04-03 15:53:00,
2013-04-03 12:00:00,39.0,11.0,-100.00,South,180,9.0,-999.0,30,-99.99,,,-99.99,638.000000,,2013-04-03 16:00:00,
2013-04-03 12:44:00,39.0,11.0,-100.00,South,180,9.0,-999.0,30,-99.99,,,-99.99,638.000000,,2013-04-03 16:44:00,
2013-04-03 12:53:00,39.0,11.0,-100.00,South,180,9.0,-999.0,30,-99.99,,,-99.99,638.000000,,2013-04-03 16:53:00,
2013-04-03 13:00:00,41.0,10.0,-100.00,South,180,9.0,-999.0,27,-99.99,,,-99.99,731.960022,,2013-04-03 17:00:00,
2013-04-03 13:47:00,41.0,10.0,-100.00,South,180,9.0,-999.0,27,-99.99,,,-99.99,731.960022,,2013-04-03 17:47:00,
2013-04-03 13:54:00,41.0,10.0,-100.00,South,180,9.0,-999.0,27,-99.99,,,-99.99,731.960022,,2013-04-03 17:54:00,
2013-04-03 14:00:00,43.0,10.0,-100.00,South,180,8.0,-999.0,26,-99.99,,,-99.99,769.080017,,2013-04-03 18:00:00,
2013-04-03 14:43:00,43.0,10.0,-100.00,South,180,8.0,-999.0,26,-99.99,,,-99.99,769.080017,,2013-04-03 18:43:00,
2013-04-03 14:52:00,43.0,10.0,-100.00,South,180,8.0,-999.0,26,-99.99,,,-99.99,769.080017,,2013-04-03 18:52:00,
2013-04-03 15:00:00,44.0,11.0,-100.00,SE,135,4.0,-999.0,25,-99.99,,,-99.99,743.559998,,2013-04-03 19:00:00,
2013-04-03 15:42:00,44.0,11.0,-100.00,SE,135,4.0,-999.0,25,-99.99,,,-99.99,743.559998,,2013-04-03 19:42:00,
2013-04-03 15:52:00,44.0,11.0,-100.00,SE,135,4.0,-999.0,25,-99.99,,,-99.99,743.559998,,2013-04-03 19:52:00,
2013-04-03 16:00:00,45.0,10.0,-100.00,SSW,202,5.0,-999.0,24,-99.99,,,-99.99,719.200012,,2013-04-03 20:00:00,
2013-04-03 16:42:00,45.0,10.0,-100.00,SSW,202,5.0,-999.0,24,-99.99,,,-99.99,719.200012,,2013-04-03 20:42:00,
2013-04-03 16:54:00,45.0,10.0,-100.00,SSW,202,5.0,-999.0,24,-99.99,,,-99.99,719.200012,,2013-04-03 20:54:00,
2013-04-03 17:00:00,46.0,10.0,-100.00,SSE,157,5.0,-999.0,22,-99.99,,,-99.99,591.599976,,2013-04-03 21:00:00,
2013-04-03 17:42:00,46.0,10.0,-100.00,SSE,157,5.0,-999.0,22,-99.99,,,-99.99,591.599976,,2013-04-03 21:42:00,
2013-04-03 17:52:00,46.0,10.0,-100.00,SSE,157,5.0,-999.0,22,-99.99,,,-99.99,591.599976,,2013-04-03 21:52:00,
2013-04-03 18:00:00,46.0,10.0,-100.00,East,90,5.0,-999.0,23,-99.99,,,-99.99,431.519989,,2013-04-03 22:00:00,
2013-04-03 18:42:00,46.0,10.0,-100.00,East,90,5.0,-999.0,23,-99.99,,,-99.99,431.519989,,2013-04-03 22:42:00,
2013-04-03 18:53:00,46.0,10.0,-100.00,East,90,5.0,-999.0,23,-99.99,,,-99.99,431.519989,,2013-04-03 22:53:00,
2013-04-03 19:00:00,44.0,9.0,-100.00,ENE,67,4.0,-999.0,23,-99.99,,,-99.99,209.960007,,2013-04-03 23:00:00,
2013-04-03 19:33:00,44.0,9.0,-100.00,ENE,67,4.0,-999.0,23,-99.99,,,-99.99,209.960007,,2013-04-03 23:33:00,
2013-04-03 19:43:00,44.0,9.0,-100.00,ENE,67,4.0,-999.0,23,-99.99,,,-99.99,209.960007,,2013-04-03 23:43:00,
2013-04-03 19:55:00,44.0,9.0,-100.00,ENE,67,4.0,-999.0,23,-99.99,,,-99.99,209.960007,,2013-04-03 23:55:00,
2013-04-03 20:00:00,41.0,8.0,-100.00,East,90,4.0,-999.0,24,-99.99,,,-99.99,35.959999,,2013-04-04 00:00:00,
2013-04-03 20:43:00,41.0,8.0,-100.00,East,90,4.0,-999.0,24,-99.99,,,-99.99,35.959999,,2013-04-04 00:43:00,
2013-04-03 20:52:00,41.0,8.0,-100.00,East,90,4.0,-999.0,24,-99.99,,,-99.99,35.959999,,2013-04-04 00:52:00,
2013-04-03 21:00:00,40.0,6.0,-100.00,SE,135,3.0,-999.0,24,-99.99,,,-99.99,1.160000,,2013-04-04 01:00:00,
2013-04-03 21:43:00,40.0,6.0,-100.00,SE,135,3.0,-999.0,24,-99.99,,,-99.99,1.160000,,2013-04-04 01:43:00,
2013-04-03 21:53:00,40.0,6.0,-100.00,SE,135,3.0,-999.0,24,-99.99,,,-99.99,1.160000,,2013-04-04 01:53:00,
2013-04-03 22:00:00,38.0,8.0,-100.00,SE,135,2.0,-999.0,28,-99.99,,,-99.99,0.000000,,2013-04-04 02:00:00,
2013-04-03 23:00:00,31.0,12.0,-100.00,SSE,157,2.0,-999.0,45,-99.99,,,-99.99,0.000000,,2013-04-04 03:00:00,
2013-04-03 23:45:00,31.0,12.0,-100.00,SSE,157,2.0,-999.0,45,-99.99,,,-99.99,0.000000,,2013-04-04 03:45:00,
2013-04-03 23:53:00,31.0,12.0,-100.00,SSE,157,2.0,-999.0,45,-99.99,,,-99.99,0.000000,,2013-04-04 03:53:00,